Flight Track Log - Related Links

Times and Time Zones

All times are in EDT time to prevent confusion due to time zone crossing. See the UAL252 flight status page for this flight to view local times or setup timezone preferences in your user account.

Time Position Orientation Groundspeed Altitude Reporting Facility
EDT Latitude Longitude Course Direction KTS MPH feet Rate Location/Type
Mon 07:26:27 PM 33.6500 -117.8833 90° East 128 147 1,700  Level Southern California TRACON
Mon 07:27:25 PM 33.6142 -117.8908 190° South 147 169 3,200 1,200 Climbing Los Angeles Center
Mon 07:28:00 PM 33.4886 -117.6467 54° Northeast  Level FlightAware Approximate
Mon 07:28:27 PM 33.5606 -117.8950 184° South 196 226 4,100  Level Los Angeles Center
Mon 07:29:00 PM 33.5468 -117.5198 66° East  Level FlightAware Approximate
Mon 07:29:29 PM 33.5325 -117.8222 115° Southeast 272 313 6,900  Level Los Angeles Center
Mon 07:30:00 PM 33.5833 -117.3831 90° East  Level FlightAware Approximate
Mon 07:30:31 PM 33.5475 -117.7261 79° East 292 336 10,000  Level Los Angeles Center
Mon 07:31:00 PM 33.5834 -117.2375 90° East  Level FlightAware Approximate
Mon 07:31:34 PM 33.5672 -117.5939 80° East 339 390 11,800  Level Los Angeles Center
Mon 07:32:35 PM 33.5839 -117.4703 81° East 376 433 14,400 2,341 Climbing Los Angeles Center
Mon 07:33:37 PM 33.5878 -117.3378 88° East 401 461 16,600 2,081 Climbing Los Angeles Center
Mon 07:34:39 PM 33.5942 -117.2003 87° East 414 476 18,700 2,129 Climbing Los Angeles Center
Mon 07:35:41 PM 33.5986 -117.0600 88° East 423 487 21,000 1,935 Climbing Los Angeles Center
Mon 07:36:43 PM 33.6036 -116.9158 88° East 431 496 22,700 1,597 Climbing Los Angeles Center
Mon 07:37:45 PM 33.6092 -116.7581 88° East 444 511 24,300 1,548 Climbing Los Angeles Center
Mon 07:38:47 PM 33.6139 -116.6031 88° East 463 533 25,900 1,452 Climbing Los Angeles Center
Mon 07:39:49 PM 33.6189 -116.4456 88° East 471 542 27,300 1,403 Climbing Los Angeles Center
Mon 07:40:51 PM 33.6322 -116.2531 85° East 484 557 28,800 1,306 Climbing Los Angeles Center
Mon 07:41:53 PM 33.7100 -116.1231 54° Northeast 485 558 30,000 1,210 Climbing Los Angeles Center
Mon 07:42:55 PM 33.8014 -116.0039 47° Northeast 484 557 31,300 1,279 Climbing Los Angeles Center
Mon 07:44:09 PM 33.9108 -115.8631 47° Northeast 481 554 32,900 1,368 Climbing Los Angeles Center
Mon 07:45:11 PM 33.9994 -115.7422 48° Northeast 480 552 34,400 1,016 Climbing Los Angeles Center
Mon 07:46:13 PM 34.0894 -115.6247 47° Northeast 479 551 35,000 290 Climbing Los Angeles Center
Mon 07:47:15 PM 34.1967 -115.4858 47° Northeast 473 544 35,000 484 Level Los Angeles Center
Mon 07:48:17 PM 34.2853 -115.3667 48° Northeast 475 547 36,000 968 Climbing Los Angeles Center
Mon 07:49:19 PM 34.3733 -115.2508 47° Northeast 472 543 37,000 439 Climbing Los Angeles Center
Mon 07:50:20 PM 34.4600 -115.1331 48° Northeast 469 540 36,900 -49 Descending Los Angeles Center
Mon 07:51:22 PM 34.5467 -115.0158 48° Northeast 468 539 36,900 48 Level Los Angeles Center
Mon 07:52:24 PM 34.6353 -114.9000 47° Northeast 468 539 37,000 48 Climbing Los Angeles Center
Mon 07:53:26 PM 34.7336 -114.7653 48° Northeast 471 542 37,000  Level Los Angeles Center
Mon 07:54:28 PM 34.8208 -114.6469 48° Northeast 471 542 37,000  Level Los Angeles Center
Mon 07:55:30 PM 34.9094 -114.5292 47° Northeast 472 543 37,000  Level Los Angeles Center
Mon 07:56:32 PM 34.9961 -114.4103 48° Northeast 472 543 37,000  Level Los Angeles Center
Mon 07:57:34 PM 35.1006 -114.2683 48° Northeast 471 542 37,000  Level Los Angeles Center
Mon 07:58:36 PM 35.1881 -114.1489 48° Northeast 472 543 37,000  Level Los Angeles Center
Mon 07:59:38 PM 35.2756 -114.0269 49° Northeast 477 549 37,000  Level Los Angeles Center
Mon 08:00:40 PM 35.3606 -113.9108 48° Northeast 477 549 37,000 48 Level Los Angeles Center
Mon 08:01:42 PM 35.4458 -113.7939 48° Northeast 476 548 37,100  Climbing Los Angeles Center
Mon 08:02:44 PM 35.5539 -113.6428 49° Northeast 479 551 37,000 -48 Descending Los Angeles Center
Mon 08:03:46 PM 35.6372 -113.5214 50° Northeast 479 551 37,000  Level Los Angeles Center
Mon 08:04:48 PM 35.7067 -113.3819 58° Northeast 478 550 37,000  Level Los Angeles Center
Mon 08:05:50 PM 35.7764 -113.2439 58° Northeast 476 548 37,000  Level Los Angeles Center
Mon 08:06:52 PM 35.8464 -113.1053 58° Northeast 475 547 37,000  Level Los Angeles Center
Mon 08:07:54 PM 35.9153 -112.9661 59° Northeast 475 547 37,000  Level Los Angeles Center
Mon 08:08:56 PM 35.9975 -112.7994 59° Northeast 474 545 37,000  Level Los Angeles Center
Mon 08:09:58 PM 36.0656 -112.6606 59° Northeast 474 545 37,000  Level Los Angeles Center
Mon 08:11:00 PM 36.1356 -112.5214 58° Northeast 477 549 37,000  Level Los Angeles Center
Mon 08:12:03 PM 36.2044 -112.3806 59° Northeast 479 551 37,000  Level Los Angeles Center
Mon 08:13:05 PM 36.2731 -112.2389 59° Northeast 480 552 37,000 48 Level Los Angeles Center
Mon 08:14:07 PM 36.3558 -112.0683 59° Northeast 483 556 37,100  Climbing Los Angeles Center
Mon 08:15:09 PM 36.4253 -111.9272 59° Northeast 482 555 37,000 -112 Descending Los Angeles Center
Mon 08:15:54 PM 36.4783 -111.8147 60° Northeast 479 551 36,900  Descending Denver Center
Mon 08:16:56 PM 36.5481 -111.6697 59° Northeast 485 558 37,000 49 Climbing Denver Center
Mon 08:17:57 PM 36.6197 -111.5236 59° Northeast 493 567 37,000  Level Denver Center
Mon 08:18:59 PM 36.6881 -111.3789 59° Northeast 491 565 37,000  Level Denver Center
Mon 08:20:01 PM 36.7578 -111.2317 59° Northeast 493 567 37,000  Level Denver Center
Mon 08:21:02 PM 36.8275 -111.0856 59° Northeast 493 567 37,000  Level Denver Center
Mon 08:22:04 PM 36.8956 -110.9375 60° Northeast 496 571 37,000  Level Denver Center
Mon 08:23:06 PM 36.9792 -110.7592 60° Northeast 498 573 37,000  Level Denver Center
Mon 08:24:07 PM 37.0492 -110.6103 59° Northeast 500 575 37,000  Level Denver Center
Mon 08:25:09 PM 37.1192 -110.4575 60° Northeast 506 582 37,000  Level Denver Center
Mon 08:26:11 PM 37.1894 -110.3072 60° Northeast 504 580 37,000  Level Denver Center
Mon 08:27:13 PM 37.2633 -110.1450 60° Northeast 502 578 37,000  Level Denver Center
Mon 08:28:14 PM 37.3306 -109.9975 60° Northeast 505 581 37,000  Level Denver Center
Mon 08:29:16 PM 37.4094 -109.8244 60° Northeast 508 585 37,000  Level Denver Center
Mon 08:30:18 PM 37.4761 -109.6783 60° Northeast 505 581 37,000  Level Denver Center
Mon 08:31:20 PM 37.5531 -109.5056 61° Northeast 505 581 37,000  Level Denver Center
Mon 08:32:21 PM 37.6200 -109.3569 60° Northeast 507 583 37,000 49 Level Denver Center
Mon 08:33:23 PM 37.6869 -109.2061 61° Northeast 512 589 37,100  Climbing Denver Center
Mon 08:34:25 PM 37.7656 -109.0294 61° Northeast 514 592 37,000 -49 Descending Denver Center
Mon 08:35:26 PM 37.8342 -108.8808 60° Northeast 511 588 37,000  Level Denver Center
Mon 08:36:28 PM 37.9183 -108.7078 58° Northeast 515 593 37,000  Level Denver Center
Mon 08:37:29 PM 37.9892 -108.5603 59° Northeast 514 592 37,000  Level Denver Center
Mon 08:38:31 PM 38.0733 -108.3900 58° Northeast 510 587 37,000  Level Denver Center
Mon 08:39:32 PM 38.1461 -108.2367 59° Northeast 512 589 37,000  Level Denver Center
Mon 08:40:34 PM 38.2164 -108.0883 59° Northeast 512 589 37,000  Level Denver Center
Mon 08:41:36 PM 38.2983 -107.9175 59° Northeast 510 587 37,000  Level Denver Center
Mon 08:42:37 PM 38.3694 -107.7703 58° Northeast 510 587 37,000  Level Denver Center
Mon 08:43:39 PM 38.4394 -107.6206 59° Northeast 513 590 37,000  Level Denver Center
Mon 08:44:41 PM 38.5200 -107.4442 60° Northeast 516 594 37,000 -293 Level Denver Center
Mon 08:45:42 PM 38.5869 -107.2931 60° Northeast 513 590 36,400 -732 Descending Denver Center
Mon 08:46:44 PM 38.6597 -107.1289 60° Northeast 522 601 35,500 -732 Descending Denver Center
Mon 08:47:45 PM 38.7319 -106.9667 60° Northeast 525 604 34,900 -1,073 Descending Denver Center
Mon 08:48:47 PM 38.8039 -106.8031 61° Northeast 528 608 33,300 -2,468 Descending Denver Center
Mon 08:49:49 PM 38.8883 -106.6131 60° Northeast 538 619 29,800 -2,537 Descending Denver Center
Mon 08:50:50 PM 38.9725 -106.4342 59° Northeast 525 604 28,100 -1,463 Descending Denver Center
Mon 08:51:52 PM 39.0378 -106.2900 60° Northeast 495 570 26,800 -1,403 Descending Denver Center
Mon 08:52:54 PM 39.1003 -106.1522 60° Northeast 478 550 25,200 -1,887 Descending Denver Center
Mon 08:53:56 PM 39.1744 -105.9839 60° Northeast 460 529 22,900 -2,049 Descending Denver Center
Mon 08:54:57 PM 39.2358 -105.8453 60° Northeast 445 512 21,000 -1,805 Descending Denver Center
Mon 08:55:59 PM 39.2953 -105.7089 61° Northeast 435 501 19,200 -1,561 Descending Denver Center
Mon 08:57:00 PM 39.3533 -105.5772 60° Northeast 420 483 17,800 -1,122 Descending Denver Center
Mon 08:58:02 PM 39.4003 -105.4522 64° Northeast 395 455 16,900 -941 Descending Denver Center
Mon 09:00:05 PM 39.4083 -105.1889 88° East 348 400 14,900 -876 Descending Denver Center
Mon 09:01:07 PM 39.4133 -105.0822 86° East 306 352 14,200 -919 Descending Denver Center
Mon 09:02:09 PM 39.4183 -104.9722 87° East 287 330 13,000 -976 Descending Denver Center
Mon 09:03:10 PM 39.4261 -104.8719 84° East 281 323 12,200 -829 Descending Denver Center
Mon 09:04:12 PM 39.4336 -104.7800 84° East 260 299 11,300 -585 Descending Denver Center
Mon 09:05:13 PM 39.4642 -104.6928 66° East 253 291 11,000 -146 Descending Denver Center
Mon 09:06:15 PM 39.5228 -104.6694 17° North 219 252 11,000 -242 Level Denver Center
Mon 09:07:17 PM 39.5753 -104.6633 North 189 217 10,500 -732 Descending Denver Center
Mon 09:08:18 PM 39.6292 -104.6631 360° North 180 207 9,500 -984 Descending Denver Center

Login

Don't have an account? Register now (free) for customized features, flight alerts, and more!